sensor_id;sensor_type;location;lat;lon;timestamp;pressure;altitude;pressure_sealevel;temperature;humidity
49377;BME280;35253;34.688;33.040;2023-03-14T00:01:46;100442.94;;;14.80;100.00
49377;BME280;35253;34.688;33.040;2023-03-14T00:04:11;100437.59;;;14.91;100.00
49377;BME280;35253;34.688;33.040;2023-03-14T00:06:37;100431.09;;;14.94;100.00
49377;BME280;35253;34.688;33.040;2023-03-14T00:09:02;100435.97;;;14.88;100.00
49377;BME280;35253;34.688;33.040;2023-03-14T00:11:28;100432.69;;;14.96;100.00
49377;BME280;35253;34.688;33.040;2023-03-14T00:13:54;100427.06;;;14.99;100.00
49377;BME280;35253;34.688;33.040;2023-03-14T00:16:20;100422.56;;;15.00;100.00
49377;BME280;35253;34.688;33.040;2023-03-14T00:18:46;100423.06;;;14.94;100.00
49377;BME280;35253;34.688;33.040;2023-03-14T00:21:11;100418.16;;;14.87;100.00
49377;BME280;35253;34.688;33.040;2023-03-14T00:23:37;100416.72;;;14.83;100.00
49377;BME280;35253;34.688;33.040;2023-03-14T00:26:05;100421.25;;;14.83;100.00
49377;BME280;35253;34.688;33.040;2023-03-14T00:28:30;100421.25;;;14.83;100.00
49377;BME280;35253;34.688;33.040;2023-03-14T00:30:56;100413.19;;;14.83;100.00
49377;BME280;35253;34.688;33.040;2023-03-14T00:33:22;100408.09;;;14.69;100.00
49377;BME280;35253;34.688;33.040;2023-03-14T00:35:54;100414.53;;;14.66;100.00
49377;BME280;35253;34.688;33.040;2023-03-14T00:38:20;100421.97;;;14.63;100.00
49377;BME280;35253;34.688;33.040;2023-03-14T00:40:46;100413.31;;;14.70;100.00
49377;BME280;35253;34.688;33.040;2023-03-14T00:43:11;100413.19;;;14.72;100.00
49377;BME280;35253;34.688;33.040;2023-03-14T00:45:37;100414.53;;;14.66;100.00
49377;BME280;35253;34.688;33.040;2023-03-14T00:48:02;100409.41;;;14.63;100.00
49377;BME280;35253;34.688;33.040;2023-03-14T00:50:28;100418.44;;;14.62;100.00
49377;BME280;35253;34.688;33.040;2023-03-14T00:52:53;100416.72;;;14.61;100.00
49377;BME280;35253;34.688;33.040;2023-03-14T00:55:19;100413.31;;;14.59;100.00
49377;BME280;35253;34.688;33.040;2023-03-14T00:57:44;100410.41;;;14.51;100.00
49377;BME280;35253;34.688;33.040;2023-03-14T01:00:10;100411.34;;;14.61;100.00
49377;BME280;35253;34.688;33.040;2023-03-14T01:02:37;100413.81;;;14.64;100.00
49377;BME280;35253;34.688;33.040;2023-03-14T01:05:02;100415.88;;;14.72;100.00
49377;BME280;35253;34.688;33.040;2023-03-14T01:07:29;100417.69;;;14.71;100.00
49377;BME280;35253;34.688;33.040;2023-03-14T01:09:54;100419.03;;;14.66;100.00
49377;BME280;35253;34.688;33.040;2023-03-14T01:12:19;100416.00;;;14.59;100.00
49377;BME280;35253;34.688;33.040;2023-03-14T01:14:45;100425.03;;;14.58;100.00
49377;BME280;35253;34.688;33.040;2023-03-14T01:17:10;100423.81;;;14.62;100.00
49377;BME280;35253;34.688;33.040;2023-03-14T01:19:36;100418.44;;;14.62;100.00
49377;BME280;35253;34.688;33.040;2023-03-14T01:22:01;100422.84;;;14.63;100.00
49377;BME280;35253;34.688;33.040;2023-03-14T01:24:27;100422.09;;;14.61;100.00
49377;BME280;35253;34.688;33.040;2023-03-14T01:26:52;100421.84;;;14.75;100.00
49377;BME280;35253;34.688;33.040;2023-03-14T01:29:17;100426.50;;;14.73;100.00
49377;BME280;35253;34.688;33.040;2023-03-14T01:31:43;100426.25;;;14.76;100.00
49377;BME280;35253;34.688;33.040;2023-03-14T01:34:08;100425.63;;;14.73;100.00
49377;BME280;35253;34.688;33.040;2023-03-14T01:36:34;100428.69;;;14.68;100.00
49377;BME280;35253;34.688;33.040;2023-03-14T01:38:59;100430.63;;;14.66;100.00
49377;BME280;35253;34.688;33.040;2023-03-14T01:41:25;100422.09;;;14.72;100.00
49377;BME280;35253;34.688;33.040;2023-03-14T01:43:50;100433.94;;;14.70;100.00
49377;BME280;35253;34.688;33.040;2023-03-14T01:46:26;100425.38;;;14.76;100.00
49377;BME280;35253;34.688;33.040;2023-03-14T01:49:01;100431.34;;;14.79;100.00
49377;BME280;35253;34.688;33.040;2023-03-14T01:53:53;100436.13;;;14.76;100.00
49377;BME280;35253;34.688;33.040;2023-03-14T01:56:20;100432.47;;;14.77;100.00
49377;BME280;35253;34.688;33.040;2023-03-14T01:58:47;100433.94;;;14.81;100.00
49377;BME280;35253;34.688;33.040;2023-03-14T02:01:13;100437.94;;;14.86;100.00
49377;BME280;35253;34.688;33.040;2023-03-14T02:03:44;100444.88;;;14.89;100.00
49377;BME280;35253;34.688;33.040;2023-03-14T02:06:10;100433.78;;;14.94;100.00
49377;BME280;35253;34.688;33.040;2023-03-14T02:08:36;100443.44;;;14.96;100.00
49377;BME280;35253;34.688;33.040;2023-03-14T02:11:02;100443.66;;;14.93;100.00
49377;BME280;35253;34.688;33.040;2023-03-14T02:13:28;100445.75;;;14.89;100.00
49377;BME280;35253;34.688;33.040;2023-03-14T02:15:54;100446.72;;;14.88;100.00
49377;BME280;35253;34.688;33.040;2023-03-14T02:18:19;100456.00;;;14.84;100.00
49377;BME280;35253;34.688;33.040;2023-03-14T02:23:10;100445.03;;;14.76;100.00
49377;BME280;35253;34.688;33.040;2023-03-14T02:26:11;100455.16;;;14.73;100.00
49377;BME280;35253;34.688;33.040;2023-03-14T02:28:29;100451.25;;;14.66;100.00
49377;BME280;35253;34.688;33.040;2023-03-14T02:30:54;100461.13;;;14.76;100.00
49377;BME280;35253;34.688;33.040;2023-03-14T02:33:20;100455.03;;;14.74;100.00
49377;BME280;35253;34.688;33.040;2023-03-14T02:40:48;100461.97;;;14.88;100.00
49377;BME280;35253;34.688;33.040;2023-03-14T02:43:14;100456.22;;;14.93;100.00
49377;BME280;35253;34.688;33.040;2023-03-14T02:45:41;100453.78;;;15.01;100.00
49377;BME280;35253;34.688;33.040;2023-03-14T02:51:07;100461.94;;;15.10;100.00
49377;BME280;35253;34.688;33.040;2023-03-14T02:53:34;100469.88;;;15.12;100.00
49377;BME280;35253;34.688;33.040;2023-03-14T02:56:00;100463.53;;;15.13;100.00
49377;BME280;35253;34.688;33.040;2023-03-14T02:58:26;100461.34;;;15.07;100.00
49377;BME280;35253;34.688;33.040;2023-03-14T03:00:52;100470.75;;;15.01;100.00
49377;BME280;35253;34.688;33.040;2023-03-14T03:03:17;100464.88;;;15.07;100.00
49377;BME280;35253;34.688;33.040;2023-03-14T03:05:43;100469.88;;;15.12;100.00
49377;BME280;35253;34.688;33.040;2023-03-14T03:08:09;100473.06;;;15.17;100.00
49377;BME280;35253;34.688;33.040;2023-03-14T03:10:35;100467.69;;;15.17;100.00
49377;BME280;35253;34.688;33.040;2023-03-14T03:13:00;100465.22;;;15.25;100.00
49377;BME280;35253;34.688;33.040;2023-03-14T03:15:26;100469.63;;;15.26;100.00
49377;BME280;35253;34.688;33.040;2023-03-14T03:17:52;100472.03;;;15.29;100.00
49377;BME280;35253;34.688;33.040;2023-03-14T03:20:17;100468.28;;;15.20;100.00
49377;BME280;35253;34.688;33.040;2023-03-14T03:22:43;100464.78;;;15.09;100.00
49377;BME280;35253;34.688;33.040;2023-03-14T03:25:08;100470.38;;;15.06;100.00
49377;BME280;35253;34.688;33.040;2023-03-14T03:27:35;100479.16;;;15.08;100.00
49377;BME280;35253;34.688;33.040;2023-03-14T03:30:01;100479.41;;;14.94;100.00
49377;BME280;35253;34.688;33.040;2023-03-14T03:32:27;100471.63;;;14.91;100.00
49377;BME280;35253;34.688;33.040;2023-03-14T03:34:53;100475.66;;;14.96;100.00
49377;BME280;35253;34.688;33.040;2023-03-14T03:37:18;100474.78;;;14.96;100.00
49377;BME280;35253;34.688;33.040;2023-03-14T03:39:44;100475.66;;;14.96;100.00
49377;BME280;35253;34.688;33.040;2023-03-14T03:42:09;100473.69;;;14.98;100.00
49377;BME280;35253;34.688;33.040;2023-03-14T03:44:35;100472.34;;;15.04;100.00
49377;BME280;35253;34.688;33.040;2023-03-14T03:47:01;100475.75;;;15.06;100.00
49377;BME280;35253;34.688;33.040;2023-03-14T03:49:30;100476.00;;;15.03;100.00
49377;BME280;35253;34.688;33.040;2023-03-14T03:51:56;100464.78;;;15.09;100.00
49377;BME280;35253;34.688;33.040;2023-03-14T03:54:21;100454.88;;;15.09;100.00
49377;BME280;35253;34.688;33.040;2023-03-14T03:56:47;100457.16;;;15.14;100.00
49377;BME280;35253;34.688;33.040;2023-03-14T03:59:12;100467.69;;;15.17;100.00
49377;BME280;35253;34.688;33.040;2023-03-14T04:01:37;100470.25;;;15.07;100.00
49377;BME280;35253;34.688;33.040;2023-03-14T04:04:03;100471.81;;;15.10;100.00
49377;BME280;35253;34.688;33.040;2023-03-14T04:06:29;100463.31;;;15.05;100.00
49377;BME280;35253;34.688;33.040;2023-03-14T04:08:54;100477.44;;;15.07;100.00
49377;BME280;35253;34.688;33.040;2023-03-14T04:11:20;100477.56;;;15.05;100.00
49377;BME280;35253;34.688;33.040;2023-03-14T04:13:45;100470.84;;;15.11;100.00
49377;BME280;35253;34.688;33.040;2023-03-14T04:16:15;100471.81;;;15.10;100.00
49377;BME280;35253;34.688;33.040;2023-03-14T04:18:41;100476.38;;;15.09;100.00
49377;BME280;35253;34.688;33.040;2023-03-14T04:21:07;100468.69;;;15.05;100.00
49377;BME280;35253;34.688;33.040;2023-03-14T04:23:32;100479.44;;;15.05;100.00
49377;BME280;35253;34.688;33.040;2023-03-14T04:25:58;100490.88;;;15.18;100.00
49377;BME280;35253;34.688;33.040;2023-03-14T04:28:23;100485.25;;;15.21;100.00
49377;BME280;35253;34.688;33.040;2023-03-14T04:30:49;100490.25;;;15.25;100.00
49377;BME280;35253;34.688;33.040;2023-03-14T04:33:14;100488.16;;;15.29;100.00
49377;BME280;35253;34.688;33.040;2023-03-14T04:35:42;100491.38;;;15.12;100.00
49377;BME280;35253;34.688;33.040;2023-03-14T04:38:08;100488.16;;;15.29;100.00
49377;BME280;35253;34.688;33.040;2023-03-14T04:40:33;100493.28;;;15.32;100.00
49377;BME280;35253;34.688;33.040;2023-03-14T04:43:01;100490.38;;;15.24;100.00
49377;BME280;35253;34.688;33.040;2023-03-14T04:45:26;100493.94;;;15.13;100.00
49377;BME280;35253;34.688;33.040;2023-03-14T04:47:52;100495.78;;;15.13;100.00
49377;BME280;35253;34.688;33.040;2023-03-14T04:50:17;100501.09;;;15.24;100.00
49377;BME280;35253;34.688;33.040;2023-03-14T04:52:43;100498.31;;;15.25;100.00
49377;BME280;35253;34.688;33.040;2023-03-14T04:55:08;100502.56;;;15.28;100.00
49377;BME280;35253;34.688;33.040;2023-03-14T04:57:34;100504.75;;;15.23;100.00
49377;BME280;35253;34.688;33.040;2023-03-14T04:59:59;100502.81;;;15.25;100.00
49377;BME280;35253;34.688;33.040;2023-03-14T05:02:24;100516.03;;;15.17;100.00
49377;BME280;35253;34.688;33.040;2023-03-14T05:04:50;100513.56;;;15.25;100.00
49377;BME280;35253;34.688;33.040;2023-03-14T05:07:15;100511.59;;;15.27;100.00
49377;BME280;35253;34.688;33.040;2023-03-14T05:09:41;100510.25;;;15.32;100.00
49377;BME280;35253;34.688;33.040;2023-03-14T05:12:06;100505.47;;;15.36;100.00
49377;BME280;35253;34.688;33.040;2023-03-14T05:14:33;100515.72;;;15.42;100.00
49377;BME280;35253;34.688;33.040;2023-03-14T05:16:58;100520.72;;;15.58;100.00
49377;BME280;35253;34.688;33.040;2023-03-14T05:19:24;100509.84;;;15.59;100.00
49377;BME280;35253;34.688;33.040;2023-03-14T05:21:49;100503.50;;;15.60;100.00
49377;BME280;35253;34.688;33.040;2023-03-14T05:24:15;100514.84;;;15.64;100.00
49377;BME280;35253;34.688;33.040;2023-03-14T05:26:40;100514.53;;;15.57;100.00
49377;BME280;35253;34.688;33.040;2023-03-14T05:29:06;100518.59;;;15.72;100.00
49377;BME280;35253;34.688;33.040;2023-03-14T05:31:31;100523.72;;;15.75;100.00
49377;BME280;35253;34.688;33.040;2023-03-14T05:33:57;100526.38;;;15.87;100.00
49377;BME280;35253;34.688;33.040;2023-03-14T05:36:22;100531.25;;;15.93;100.00
49377;BME280;35253;34.688;33.040;2023-03-14T05:38:47;100539.94;;;15.96;100.00
49377;BME280;35253;34.688;33.040;2023-03-14T05:41:13;100528.25;;;16.07;100.00
49377;BME280;35253;34.688;33.040;2023-03-14T05:43:38;100531.19;;;16.04;100.00
49377;BME280;35253;34.688;33.040;2023-03-14T05:46:06;100542.38;;;16.20;100.00
49377;BME280;35253;34.688;33.040;2023-03-14T05:48:32;100541.84;;;16.26;100.00
49377;BME280;35253;34.688;33.040;2023-03-14T05:50:57;100544.75;;;16.34;100.00
49377;BME280;35253;34.688;33.040;2023-03-14T05:53:24;100549.16;;;16.35;100.00
49377;BME280;35253;34.688;33.040;2023-03-14T05:55:51;100547.13;;;16.48;100.00
49377;BME280;35253;34.688;33.040;2023-03-14T05:58:16;100551.75;;;16.57;100.00
49377;BME280;35253;34.688;33.040;2023-03-14T06:00:42;100554.44;;;16.57;100.00
49377;BME280;35253;34.688;33.040;2023-03-14T06:03:07;100559.28;;;16.63;100.00
49377;BME280;35253;34.688;33.040;2023-03-14T06:05:32;100557.91;;;16.69;100.00
49377;BME280;35253;34.688;33.040;2023-03-14T06:07:58;100563.63;;;16.76;100.00
49377;BME280;35253;34.688;33.040;2023-03-14T06:10:23;100558.53;;;16.82;100.00
49377;BME280;35253;34.688;33.040;2023-03-14T06:12:49;100564.00;;;16.92;100.00
49377;BME280;35253;34.688;33.040;2023-03-14T06:15:14;100555.31;;;16.88;100.00
49377;BME280;35253;34.688;33.040;2023-03-14T06:17:40;100556.09;;;17.00;100.00
49377;BME280;35253;34.688;33.040;2023-03-14T06:20:05;100556.41;;;17.06;100.00
49377;BME280;35253;34.688;33.040;2023-03-14T06:22:31;100567.13;;;17.27;100.00
49377;BME280;35253;34.688;33.040;2023-03-14T06:24:56;100566.69;;;17.22;100.00
49377;BME280;35253;34.688;33.040;2023-03-14T06:27:22;100575.22;;;17.27;100.00
49377;BME280;35253;34.688;33.040;2023-03-14T06:29:47;100568.56;;;17.31;100.00
49377;BME280;35253;34.688;33.040;2023-03-14T06:32:12;100567.88;;;17.39;100.00
49377;BME280;35253;34.688;33.040;2023-03-14T06:34:38;100565.91;;;17.41;100.00
49377;BME280;35253;34.688;33.040;2023-03-14T06:37:04;100566.72;;;17.32;100.00
49377;BME280;35253;34.688;33.040;2023-03-14T06:39:29;100570.81;;;17.26;100.00
49377;BME280;35253;34.688;33.040;2023-03-14T06:41:56;100572.41;;;17.38;100.00
49377;BME280;35253;34.688;33.040;2023-03-14T06:44:22;100575.38;;;17.35;100.00
49377;BME280;35253;34.688;33.040;2023-03-14T06:46:47;100568.16;;;17.36;100.00
49377;BME280;35253;34.688;33.040;2023-03-14T06:49:12;100568.72;;;17.39;100.00
49377;BME280;35253;34.688;33.040;2023-03-14T06:51:38;100578.81;;;17.37;100.00
49377;BME280;35253;34.688;33.040;2023-03-14T06:54:03;100573.28;;;17.48;100.00
49377;BME280;35253;34.688;33.040;2023-03-14T06:56:29;100571.31;;;17.50;100.00
49377;BME280;35253;34.688;33.040;2023-03-14T06:58:54;100566.28;;;17.67;100.00
49377;BME280;35253;34.688;33.040;2023-03-14T07:01:24;100574.09;;;17.70;100.00
49377;BME280;35253;34.688;33.040;2023-03-14T07:03:50;100572.47;;;17.57;100.00
49377;BME280;35253;34.688;33.040;2023-03-14T07:06:15;100567.63;;;17.51;100.00
49377;BME280;35253;34.688;33.040;2023-03-14T07:08:41;100561.22;;;17.43;100.00
49377;BME280;35253;34.688;33.040;2023-03-14T07:11:07;100559.38;;;17.43;100.00
49377;BME280;35253;34.688;33.040;2023-03-14T07:13:32;100553.69;;;17.46;100.00
49377;BME280;35253;34.688;33.040;2023-03-14T07:15:58;100550.84;;;17.38;100.00
49377;BME280;35253;34.688;33.040;2023-03-14T07:18:23;100544.63;;;17.47;100.00
49377;BME280;35253;34.688;33.040;2023-03-14T07:20:48;100546.78;;;17.53;100.00
49377;BME280;35253;34.688;33.040;2023-03-14T07:23:14;100546.69;;;17.65;100.00
49377;BME280;35253;34.688;33.040;2023-03-14T07:25:39;100543.72;;;17.77;100.00
49377;BME280;35253;34.688;33.040;2023-03-14T07:28:05;100543.31;;;17.72;100.00
49377;BME280;35253;34.688;33.040;2023-03-14T07:30:30;100540.91;;;17.79;100.00
49377;BME280;35253;34.688;33.040;2023-03-14T07:32:56;100539.34;;;17.86;100.00
49377;BME280;35253;34.688;33.040;2023-03-14T07:35:21;100536.66;;;18.05;100.00
49377;BME280;35253;34.688;33.040;2023-03-14T07:37:46;100544.63;;;18.16;100.00
49377;BME280;35253;34.688;33.040;2023-03-14T07:40:12;100541.91;;;18.26;100.00
49377;BME280;35253;34.688;33.040;2023-03-14T07:42:40;100542.19;;;18.32;100.00
49377;BME280;35253;34.688;33.040;2023-03-14T07:45:06;100540.47;;;18.31;100.00
49377;BME280;35253;34.688;33.040;2023-03-14T07:47:32;100544.47;;;18.27;100.00
49377;BME280;35253;34.688;33.040;2023-03-14T07:49:57;100538.22;;;18.27;100.00
49377;BME280;35253;34.688;33.040;2023-03-14T07:52:23;100533.38;;;18.30;100.00
49377;BME280;35253;34.688;33.040;2023-03-14T07:54:49;100546.03;;;18.20;100.00
49377;BME280;35253;34.688;33.040;2023-03-14T07:57:14;100543.31;;;18.30;100.00
49377;BME280;35253;34.688;33.040;2023-03-14T07:59:40;100548.75;;;18.20;100.00
49377;BME280;35253;34.688;33.040;2023-03-14T08:02:07;100547.75;;;18.12;100.00
49377;BME280;35253;34.688;33.040;2023-03-14T08:04:37;100554.13;;;18.20;100.00
49377;BME280;35253;34.688;33.040;2023-03-14T08:07:02;100547.03;;;18.10;100.00
49377;BME280;35253;34.688;33.040;2023-03-14T08:09:28;100564.34;;;18.26;100.00
49377;BME280;35253;34.688;33.040;2023-03-14T08:11:53;100561.81;;;18.15;100.00
49377;BME280;35253;34.688;33.040;2023-03-14T08:14:19;100565.50;;;18.14;100.00
49377;BME280;35253;34.688;33.040;2023-03-14T08:16:45;100570.03;;;18.33;100.00
49377;BME280;35253;34.688;33.040;2023-03-14T08:19:10;100566.78;;;18.29;100.00
49377;BME280;35253;34.688;33.040;2023-03-14T08:21:36;100572.31;;;18.28;100.00
49377;BME280;35253;34.688;33.040;2023-03-14T08:24:01;100570.31;;;18.39;100.00
49377;BME280;35253;34.688;33.040;2023-03-14T08:26:27;100569.75;;;18.36;100.00
49377;BME280;35253;34.688;33.040;2023-03-14T08:28:52;100565.50;;;18.33;100.00
49377;BME280;35253;34.688;33.040;2023-03-14T08:31:18;100567.19;;;18.34;100.00
49377;BME280;35253;34.688;33.040;2023-03-14T08:33:43;100564.63;;;18.14;100.00
49377;BME280;35253;34.688;33.040;2023-03-14T08:36:09;100563.22;;;18.19;100.00
49377;BME280;35253;34.688;33.040;2023-03-14T08:38:34;100565.34;;;18.16;100.00
49377;BME280;35253;34.688;33.040;2023-03-14T08:41:01;100559.09;;;18.15;100.00
49377;BME280;35253;34.688;33.040;2023-03-14T08:43:27;100558.13;;;18.16;100.00
49377;BME280;35253;34.688;33.040;2023-03-14T08:45:53;100567.75;;;18.19;100.00
49377;BME280;35253;34.688;33.040;2023-03-14T08:48:18;100578.28;;;18.12;100.00
49377;BME280;35253;34.688;33.040;2023-03-14T08:50:44;100577.00;;;18.07;100.00
49377;BME280;35253;34.688;33.040;2023-03-14T08:53:10;100574.28;;;18.07;100.00
49377;BME280;35253;34.688;33.040;2023-03-14T08:55:35;100584.66;;;18.11;100.00
49377;BME280;35253;34.688;33.040;2023-03-14T08:58:01;100587.63;;;18.08;100.00
49377;BME280;35253;34.688;33.040;2023-03-14T09:00:26;100589.91;;;18.03;100.00
49377;BME280;35253;34.688;33.040;2023-03-14T09:02:52;100587.91;;;18.05;100.00
49377;BME280;35253;34.688;33.040;2023-03-14T09:05:17;100592.03;;;18.09;100.00
49377;BME280;35253;34.688;33.040;2023-03-14T09:07:43;100590.50;;;18.07;100.00
49377;BME280;35253;34.688;33.040;2023-03-14T09:10:09;100585.63;;;18.00;100.00
49377;BME280;35253;34.688;33.040;2023-03-14T09:12:35;100588.47;;;17.99;100.00
49377;BME280;35253;34.688;33.040;2023-03-14T09:15:00;100590.19;;;18.00;100.00
49377;BME280;35253;34.688;33.040;2023-03-14T09:17:26;100595.72;;;17.98;100.00
49377;BME280;35253;34.688;33.040;2023-03-14T09:19:51;100594.16;;;17.96;100.00
49377;BME280;35253;34.688;33.040;2023-03-14T09:22:17;100597.25;;;17.82;100.00
49377;BME280;35253;34.688;33.040;2023-03-14T09:24:42;100595.22;;;17.04;100.00
49377;BME280;35253;34.688;33.040;2023-03-14T09:27:08;100602.16;;;17.27;100.00
49377;BME280;35253;34.688;33.040;2023-03-14T09:29:33;100597.09;;;17.43;100.00
49377;BME280;35253;34.688;33.040;2023-03-14T09:31:59;100599.41;;;17.48;100.00
49377;BME280;35253;34.688;33.040;2023-03-14T09:34:25;100598.00;;;17.53;100.00
49377;BME280;35253;34.688;33.040;2023-03-14T09:36:50;100591.47;;;17.56;100.00
49377;BME280;35253;34.688;33.040;2023-03-14T09:39:15;100602.22;;;17.46;100.00
49377;BME280;35253;34.688;33.040;2023-03-14T09:41:51;100589.13;;;17.02;100.00
49377;BME280;35253;34.688;33.040;2023-03-14T09:44:29;100591.44;;;17.46;100.00
49377;BME280;35253;34.688;33.040;2023-03-14T09:46:57;100584.34;;;17.76;100.00
49377;BME280;35253;34.688;33.040;2023-03-14T09:49:24;100581.66;;;17.95;100.00
49377;BME280;35253;34.688;33.040;2023-03-14T09:51:53;100581.81;;;18.13;100.00
49377;BME280;35253;34.688;33.040;2023-03-14T09:56:57;100558.66;;;18.68;100.00
49377;BME280;35253;34.688;33.040;2023-03-14T09:59:23;100563.06;;;18.69;100.00
49377;BME280;35253;34.688;33.040;2023-03-14T10:01:48;100562.00;;;18.89;100.00
49377;BME280;35253;34.688;33.040;2023-03-14T10:04:14;100564.28;;;18.94;100.00
49377;BME280;35253;34.688;33.040;2023-03-14T10:06:41;100552.81;;;18.82;100.00
49377;BME280;35253;34.688;33.040;2023-03-14T10:09:08;100556.47;;;18.90;100.00
49377;BME280;35253;34.688;33.040;2023-03-14T10:11:33;100552.81;;;18.82;100.00
49377;BME280;35253;34.688;33.040;2023-03-14T10:14:06;100544.34;;;19.04;100.00
49377;BME280;35253;34.688;33.040;2023-03-14T10:16:33;100537.16;;;19.50;100.00
49377;BME280;35253;34.688;33.040;2023-03-14T10:19:06;100528.25;;;19.85;100.00
49377;BME280;35253;34.688;33.040;2023-03-14T10:21:42;100529.34;;;19.92;100.00
49377;BME280;35253;34.688;33.040;2023-03-14T10:24:30;100516.88;;;20.16;100.00
49377;BME280;35253;34.688;33.040;2023-03-14T10:26:53;100503.38;;;19.99;100.00
49377;BME280;35253;34.688;33.040;2023-03-14T10:29:19;100497.22;;;19.44;100.00
49377;BME280;35253;34.688;33.040;2023-03-14T10:31:48;100486.72;;;20.11;100.00
49377;BME280;35253;34.688;33.040;2023-03-14T10:34:21;100475.53;;;19.89;100.00
49377;BME280;35253;34.688;33.040;2023-03-14T10:36:46;100469.97;;;19.72;100.00
49377;BME280;35253;34.688;33.040;2023-03-14T10:39:34;100469.75;;;19.48;100.00
49377;BME280;35253;34.688;33.040;2023-03-14T10:42:05;100475.69;;;19.24;100.00
49377;BME280;35253;34.688;33.040;2023-03-14T10:44:32;100469.44;;;19.42;100.00
49377;BME280;35253;34.688;33.040;2023-03-14T10:47:00;100469.06;;;20.25;100.00
49377;BME280;35253;34.688;33.040;2023-03-14T10:49:31;100464.88;;;19.69;100.00
49377;BME280;35253;34.688;33.040;2023-03-14T10:52:00;100453.56;;;20.53;100.00
49377;BME280;35253;34.688;33.040;2023-03-14T10:54:29;100441.59;;;19.94;100.00
49377;BME280;35253;34.688;33.040;2023-03-14T10:57:01;100440.88;;;20.87;100.00
49377;BME280;35253;34.688;33.040;2023-03-14T10:59:33;100427.69;;;21.34;100.00
49377;BME280;35253;34.688;33.040;2023-03-14T11:02:03;100415.00;;;21.59;100.00
49377;BME280;35253;34.688;33.040;2023-03-14T11:04:45;100418.03;;;21.32;100.00
49377;BME280;35253;34.688;33.040;2023-03-14T11:15:25;100389.97;;;20.65;100.00
49377;BME280;35253;34.688;33.040;2023-03-14T11:20:51;100390.41;;;20.94;100.00
49377;BME280;35253;34.688;33.040;2023-03-14T11:23:19;100397.00;;;21.26;100.00
49377;BME280;35253;34.688;33.040;2023-03-14T11:25:48;100381.91;;;22.44;100.00
49377;BME280;35253;34.688;33.040;2023-03-14T11:30:51;100385.25;;;23.32;100.00
49377;BME280;35253;34.688;33.040;2023-03-14T11:33:21;100369.22;;;22.84;100.00
49377;BME280;35253;34.688;33.040;2023-03-14T11:36:08;100366.50;;;21.72;100.00
49377;BME280;35253;34.688;33.040;2023-03-14T11:38:46;100370.41;;;20.45;100.00
49377;BME280;35253;34.688;33.040;2023-03-14T11:41:18;100369.81;;;21.09;100.00
49377;BME280;35253;34.688;33.040;2023-03-14T11:43:48;100369.75;;;21.76;100.00
49377;BME280;35253;34.688;33.040;2023-03-14T11:51:54;100385.69;;;21.71;100.00
49377;BME280;35253;34.688;33.040;2023-03-14T11:56:53;100385.34;;;21.57;100.00
49377;BME280;35253;34.688;33.040;2023-03-14T12:02:04;100382.66;;;22.14;100.00
49377;BME280;35253;34.688;33.040;2023-03-14T12:07:23;100371.25;;;21.30;100.00
49377;BME280;35253;34.688;33.040;2023-03-14T12:09:53;100371.19;;;20.72;100.00
49377;BME280;35253;34.688;33.040;2023-03-14T12:12:21;100385.34;;;20.91;100.00
49377;BME280;35253;34.688;33.040;2023-03-14T12:14:55;100389.91;;;21.41;100.00
49377;BME280;35253;34.688;33.040;2023-03-14T12:17:26;100391.38;;;22.73;100.00
49377;BME280;35253;34.688;33.040;2023-03-14T12:22:40;100388.59;;;23.73;100.00
49377;BME280;35253;34.688;33.040;2023-03-14T12:38:15;100346.53;;;21.57;100.00
49377;BME280;35253;34.688;33.040;2023-03-14T12:43:29;100346.47;;;22.69;100.00
49377;BME280;35253;34.688;33.040;2023-03-14T12:48:32;100349.22;;;22.77;100.00
49377;BME280;35253;34.688;33.040;2023-03-14T12:51:05;100353.97;;;21.55;100.00
49377;BME280;35253;34.688;33.040;2023-03-14T12:56:09;100347.84;;;20.71;100.00
49377;BME280;35253;34.688;33.040;2023-03-14T13:01:21;100357.44;;;20.05;100.00
49377;BME280;35253;34.688;33.040;2023-03-14T13:03:47;100357.63;;;20.63;100.00
49377;BME280;35253;34.688;33.040;2023-03-14T13:09:06;100364.78;;;20.81;100.00
49377;BME280;35253;34.688;33.040;2023-03-14T13:11:45;100355.53;;;20.91;100.00
49377;BME280;35253;34.688;33.040;2023-03-14T13:14:10;100350.25;;;20.90;100.00
49377;BME280;35253;34.688;33.040;2023-03-14T13:16:36;100345.31;;;20.77;100.00
49377;BME280;35253;34.688;33.040;2023-03-14T13:19:44;100350.91;;;20.42;100.00
49377;BME280;35253;34.688;33.040;2023-03-14T13:21:50;100351.28;;;19.95;100.00
49377;BME280;35253;34.688;33.040;2023-03-14T13:24:23;100362.72;;;19.63;100.00
49377;BME280;35253;34.688;33.040;2023-03-14T13:26:49;100369.97;;;20.06;100.00
49377;BME280;35253;34.688;33.040;2023-03-14T13:29:27;100372.94;;;19.95;100.00
49377;BME280;35253;34.688;33.040;2023-03-14T13:31:57;100378.56;;;20.27;100.00
49377;BME280;35253;34.688;33.040;2023-03-14T13:34:31;100368.88;;;20.17;100.00
49377;BME280;35253;34.688;33.040;2023-03-14T13:36:56;100374.66;;;19.96;100.00
49377;BME280;35253;34.688;33.040;2023-03-14T13:39:23;100364.97;;;19.94;100.00
49377;BME280;35253;34.688;33.040;2023-03-14T13:41:50;100363.25;;;19.93;100.00